Terminal Aerodrome Forecast
Issued by NWS Pocatello, ID

Home | Current Version | Previous Version | Text Only | Print | Product List | Glossary On
Versions: 1 2 3 4 5 6 7 8 9 10 11 12 13 14
000
FTUS45 KPIH 301700
TAFPIH
TAF
KPIH 301720Z 3018/3118 23020G30KT P6SM SCT120 OVC200
     FM302100 23020G30KT P6SM VCTS SCT100CB OVC200
     FM310200 24013G20KT P6SM VCSH BKN070
     FM311700 24020G30KT P6SM BKN120 BKN200=

USA.gov is the U.S. government's official web portal to all federal, state and local government web resources and services.